createdAt,value
2023-05-21T00:00:31.748Z,12.90
2023-05-21T00:02:59.651Z,15.00
2023-05-21T00:05:26.577Z,17.70
2023-05-21T00:07:55.154Z,13.87
2023-05-21T00:10:22.360Z,16.37
2023-05-21T00:12:49.107Z,14.57
2023-05-21T00:15:15.958Z,15.10
2023-05-21T00:17:43.638Z,15.40
2023-05-21T00:20:11.155Z,13.73
2023-05-21T00:22:37.901Z,13.43
2023-05-21T00:25:05.193Z,15.70
2023-05-21T00:27:32.052Z,13.47
2023-05-21T00:29:58.985Z,14.60
2023-05-21T00:32:25.821Z,17.60
2023-05-21T00:34:52.763Z,16.33
2023-05-21T00:37:20.881Z,18.73
2023-05-21T00:39:47.700Z,17.37
2023-05-21T00:42:18.408Z,17.57
2023-05-21T00:44:45.720Z,15.50
2023-05-21T00:47:18.549Z,14.90
2023-05-21T00:49:45.779Z,15.80
2023-05-21T00:52:12.658Z,16.83
2023-05-21T00:54:39.395Z,15.40
2023-05-21T00:57:06.400Z,22.47
2023-05-21T00:59:33.893Z,17.37
2023-05-21T01:02:04.411Z,18.90
2023-05-21T01:04:31.912Z,16.73
2023-05-21T01:06:59.009Z,15.87
2023-05-21T01:09:26.699Z,19.97
2023-05-21T01:11:54.219Z,15.40
2023-05-21T01:14:21.506Z,17.40
2023-05-21T01:16:52.525Z,17.10
2023-05-21T01:19:20.988Z,19.23
2023-05-21T01:21:53.073Z,18.70
2023-05-21T01:24:19.994Z,17.07
2023-05-21T01:26:46.976Z,20.40
2023-05-21T01:29:14.342Z,20.97
2023-05-21T01:32:05.993Z,21.60
2023-05-21T01:34:41.195Z,19.83
2023-05-21T01:37:31.388Z,19.10
2023-05-21T01:40:01.302Z,19.13
2023-05-21T01:42:28.537Z,18.53
2023-05-21T01:44:56.149Z,20.60
2023-05-21T01:47:23.928Z,21.20
2023-05-21T01:49:53.052Z,19.83
2023-05-21T01:52:19.912Z,19.17
2023-05-21T01:54:47.279Z,19.63
2023-05-21T01:57:14.071Z,17.53
2023-05-21T01:59:41.262Z,19.57
2023-05-21T02:02:08.201Z,20.00
2023-05-21T02:04:35.218Z,21.10
2023-05-21T02:07:02.593Z,19.90
2023-05-21T02:09:29.389Z,19.17
2023-05-21T02:11:56.134Z,20.20
2023-05-21T02:14:22.841Z,19.87
2023-05-21T02:16:50.012Z,18.50
2023-05-21T02:19:17.380Z,21.37
2023-05-21T02:21:44.316Z,20.93
2023-05-21T02:24:11.494Z,22.60
2023-05-21T02:26:38.320Z,21.00
2023-05-21T02:29:05.435Z,21.57
2023-05-21T02:31:32.456Z,19.50
2023-05-21T02:33:59.187Z,21.00
2023-05-21T02:36:26.725Z,19.63
2023-05-21T02:38:53.431Z,20.73
2023-05-21T02:41:21.758Z,21.43
2023-05-21T02:43:48.580Z,21.87
2023-05-21T02:46:16.163Z,21.57
2023-05-21T02:48:42.923Z,21.77
2023-05-21T02:51:09.680Z,21.03
2023-05-21T02:53:36.679Z,21.77
2023-05-21T02:56:04.481Z,19.73
2023-05-21T02:58:31.298Z,23.03
2023-05-21T03:00:58.094Z,22.57
2023-05-21T03:03:24.980Z,23.50
2023-05-21T03:05:53.221Z,20.77
2023-05-21T03:08:20.023Z,23.00
2023-05-21T03:10:46.756Z,20.40
2023-05-21T03:13:13.728Z,23.20
2023-05-21T03:15:40.487Z,24.97
2023-05-21T03:18:08.985Z,20.33
2023-05-21T03:20:35.976Z,21.40
2023-05-21T03:23:04.566Z,20.63
2023-05-21T03:25:31.780Z,23.90
2023-05-21T03:27:59.237Z,23.07
2023-05-21T03:30:42.212Z,22.30
2023-05-21T03:33:31.299Z,22.40
2023-05-21T03:35:58.514Z,22.00
2023-05-21T03:38:28.279Z,22.30
2023-05-21T03:40:54.999Z,23.33
2023-05-21T03:43:22.213Z,21.13
2023-05-21T03:45:49.099Z,23.90
2023-05-21T03:48:34.256Z,24.67
2023-05-21T03:51:02.623Z,22.27
2023-05-21T03:53:29.374Z,21.50
2023-05-21T03:55:56.194Z,23.70
2023-05-21T03:58:24.846Z,22.77
2023-05-21T04:00:51.673Z,21.10
2023-05-21T04:03:18.599Z,21.40
2023-05-21T04:05:45.971Z,22.93
2023-05-21T04:08:12.793Z,22.03
2023-05-21T04:10:39.653Z,21.87
2023-05-21T04:13:06.674Z,18.47
2023-05-21T04:15:36.027Z,20.30
2023-05-21T04:18:03.235Z,19.67
2023-05-21T04:20:30.011Z,19.80
2023-05-21T04:22:57.002Z,20.17
2023-05-21T04:25:23.937Z,20.13
2023-05-21T04:27:51.347Z,22.23
2023-05-21T04:30:20.277Z,19.57
2023-05-21T04:32:48.474Z,21.23
2023-05-21T04:35:18.545Z,19.50
2023-05-21T04:37:46.154Z,21.67
2023-05-21T04:40:18.559Z,22.07
2023-05-21T04:42:50.954Z,22.90
2023-05-21T04:45:21.350Z,19.30
2023-05-21T04:47:48.807Z,20.87
2023-05-21T04:50:15.582Z,22.07
2023-05-21T04:52:42.418Z,17.77
2023-05-21T04:55:09.250Z,19.40
2023-05-21T04:57:36.387Z,19.27
2023-05-21T05:00:06.391Z,20.40
2023-05-21T05:02:38.853Z,19.53
2023-05-21T05:05:06.110Z,18.40
2023-05-21T05:07:32.862Z,18.60
2023-05-21T05:09:59.902Z,19.73
2023-05-21T05:12:26.724Z,18.20
2023-05-21T05:14:53.428Z,19.53
2023-05-21T05:17:20.214Z,19.13
2023-05-21T05:19:47.079Z,20.70
2023-05-21T05:22:13.924Z,16.37
2023-05-21T05:24:42.019Z,14.47
2023-05-21T05:27:08.866Z,18.07
2023-05-21T05:29:36.127Z,17.10
2023-05-21T05:32:04.121Z,19.07
2023-05-21T05:34:31.393Z,18.10
2023-05-21T05:36:58.285Z,16.70
2023-05-21T05:39:25.098Z,14.87
2023-05-21T05:41:51.959Z,15.70
2023-05-21T05:44:18.963Z,14.23
2023-05-21T05:46:46.444Z,16.33
2023-05-21T05:49:14.123Z,12.40
2023-05-21T05:51:41.212Z,13.57
2023-05-21T05:54:08.026Z,11.83
2023-05-21T05:56:36.259Z,14.83
2023-05-21T05:59:04.653Z,14.83
2023-05-21T06:01:34.551Z,11.43
2023-05-21T06:04:01.532Z,11.50
2023-05-21T06:06:29.992Z,13.57
2023-05-21T06:08:58.453Z,11.87
2023-05-21T06:11:25.861Z,11.17
2023-05-21T06:13:52.712Z,12.50
2023-05-21T06:16:19.668Z,11.07
2023-05-21T06:18:46.821Z,10.70
2023-05-21T06:21:13.765Z,13.00
2023-05-21T06:23:40.611Z,10.73
2023-05-21T06:26:07.926Z,9.50
2023-05-21T06:28:35.019Z,10.00
2023-05-21T06:31:02.143Z,10.80
2023-05-21T06:33:31.080Z,8.97
2023-05-21T06:35:58.129Z,9.00
2023-05-21T06:38:28.533Z,10.27
2023-05-21T06:40:55.370Z,9.67
2023-05-21T06:43:37.111Z,8.73
2023-05-21T06:46:22.604Z,8.90
2023-05-21T06:48:52.224Z,8.43
2023-05-21T06:51:20.703Z,12.07
2023-05-21T06:53:48.417Z,9.77
2023-05-21T06:56:16.094Z,10.43
2023-05-21T06:58:43.784Z,11.97
2023-05-21T07:01:12.110Z,9.67
2023-05-21T07:03:39.125Z,9.57
2023-05-21T07:06:06.785Z,11.03
2023-05-21T07:08:33.633Z,10.47
2023-05-21T07:11:03.279Z,11.93
2023-05-21T07:13:30.777Z,9.63
2023-05-21T07:15:57.683Z,12.67
2023-05-21T07:18:25.863Z,10.07
2023-05-21T07:20:53.246Z,11.27
2023-05-21T07:23:21.546Z,10.53
2023-05-21T07:25:48.376Z,11.87
2023-05-21T07:28:15.261Z,9.13
2023-05-21T07:30:42.065Z,10.13
2023-05-21T07:33:13.895Z,9.43
2023-05-21T07:35:41.152Z,10.37
2023-05-21T07:38:08.331Z,9.73
2023-05-21T07:40:35.076Z,9.53
2023-05-21T07:43:03.184Z,10.03
2023-05-21T07:45:31.260Z,9.00
2023-05-21T07:47:58.166Z,13.40
2023-05-21T07:50:26.276Z,9.83
2023-05-21T07:52:53.085Z,8.93
2023-05-21T07:55:20.801Z,9.50
2023-05-21T07:57:47.622Z,10.23
2023-05-21T08:00:16.944Z,10.40
2023-05-21T08:02:49.069Z,10.37
2023-05-21T08:05:19.251Z,12.60
2023-05-21T08:07:46.542Z,11.27
2023-05-21T08:10:13.875Z,9.73
2023-05-21T08:12:40.724Z,11.43
2023-05-21T08:15:08.661Z,10.20
2023-05-21T08:17:40.243Z,9.97
2023-05-21T08:20:07.500Z,10.07
2023-05-21T08:22:37.048Z,10.13
2023-05-21T08:25:04.007Z,10.60
2023-05-21T08:27:30.730Z,11.40
2023-05-21T08:29:58.020Z,10.33
2023-05-21T08:32:24.836Z,12.43
2023-05-21T08:34:53.743Z,10.37
2023-05-21T08:37:46.732Z,9.40
2023-05-21T08:40:19.208Z,8.60
2023-05-21T08:42:47.813Z,11.13
2023-05-21T08:45:23.244Z,9.13
2023-05-21T08:47:59.939Z,8.97
2023-05-21T08:50:31.551Z,9.70
2023-05-21T08:53:04.038Z,13.23
2023-05-21T08:55:36.988Z,10.23
2023-05-21T08:58:04.964Z,9.57
2023-05-21T09:00:31.790Z,9.60
2023-05-21T09:03:02.280Z,9.13
2023-05-21T09:05:29.689Z,10.03
2023-05-21T09:08:02.572Z,11.17
2023-05-21T09:10:39.393Z,12.13
2023-05-21T09:13:08.163Z,10.23
2023-05-21T09:15:35.730Z,11.57
2023-05-21T09:18:02.801Z,10.33
2023-05-21T09:20:38.971Z,10.73
2023-05-21T09:23:07.011Z,10.20
2023-05-21T09:25:37.809Z,12.43
2023-05-21T09:28:13.534Z,10.97
2023-05-21T09:30:47.547Z,9.73
2023-05-21T09:33:29.551Z,11.23
2023-05-21T09:35:58.068Z,12.27
2023-05-21T09:38:27.303Z,12.53
2023-05-21T09:40:58.007Z,11.23
2023-05-21T09:43:26.896Z,12.47
2023-05-21T09:45:55.861Z,11.57
2023-05-21T09:48:37.093Z,11.43
2023-05-21T09:51:09.525Z,12.77
2023-05-21T09:53:36.775Z,12.97
2023-05-21T09:56:04.459Z,11.50
2023-05-21T09:58:31.556Z,14.03
2023-05-21T10:00:59.734Z,12.83
2023-05-21T10:03:28.568Z,15.27
2023-05-21T10:05:56.034Z,13.03
2023-05-21T10:08:25.552Z,10.83
2023-05-21T10:10:52.570Z,13.70
2023-05-21T10:13:21.607Z,13.40
2023-05-21T10:15:50.939Z,13.20
2023-05-21T10:18:19.707Z,15.53
2023-05-21T10:20:46.629Z,15.13
2023-05-21T10:23:13.449Z,13.70
2023-05-21T10:25:40.374Z,14.53
2023-05-21T10:28:07.423Z,16.37
2023-05-21T10:30:36.739Z,13.17
2023-05-21T10:33:05.972Z,15.33
2023-05-21T10:35:33.853Z,14.17
2023-05-21T10:38:02.376Z,15.50
2023-05-21T10:40:29.656Z,15.37
2023-05-21T10:43:25.805Z,16.30
2023-05-21T10:46:14.788Z,14.63
2023-05-21T10:48:51.155Z,15.63
2023-05-21T10:51:24.673Z,15.23
2023-05-21T10:53:51.436Z,14.87
2023-05-21T10:56:39.786Z,16.20
2023-05-21T10:59:24.661Z,16.67
2023-05-21T11:01:53.248Z,14.20
2023-05-21T11:04:26.332Z,17.67
2023-05-21T11:06:53.795Z,16.63
2023-05-21T11:09:20.826Z,15.40
2023-05-21T11:11:52.435Z,14.00
2023-05-21T11:14:40.733Z,13.37
2023-05-21T11:17:07.726Z,16.27
2023-05-21T11:19:36.661Z,14.67
2023-05-21T11:22:11.524Z,16.27
2023-05-21T11:24:41.500Z,13.80
2023-05-21T11:27:08.870Z,13.87
2023-05-21T11:29:42.865Z,14.90
2023-05-21T11:32:11.643Z,14.70
2023-05-21T11:34:39.719Z,16.07
2023-05-21T11:37:19.117Z,14.93
2023-05-21T11:39:45.924Z,15.53
2023-05-21T11:42:12.796Z,14.37
2023-05-21T11:44:40.212Z,18.03
2023-05-21T11:47:11.582Z,14.60
2023-05-21T11:49:40.043Z,15.40
2023-05-21T11:52:07.950Z,15.27
2023-05-21T11:54:40.517Z,16.10
2023-05-21T11:57:08.253Z,17.73
2023-05-21T11:59:35.316Z,18.83
2023-05-21T12:02:02.483Z,17.30
2023-05-21T12:04:38.963Z,17.40
2023-05-21T12:07:09.374Z,14.57
2023-05-21T12:09:43.669Z,16.33
2023-05-21T12:12:11.811Z,15.03
2023-05-21T12:14:38.804Z,15.83
2023-05-21T12:17:07.775Z,15.47
2023-05-21T12:19:34.886Z,15.13
2023-05-21T12:22:02.997Z,16.10
2023-05-21T12:24:30.604Z,13.30
2023-05-21T12:27:01.979Z,15.53
2023-05-21T12:29:30.143Z,16.10
2023-05-21T12:32:03.987Z,14.80
2023-05-21T12:34:41.256Z,15.23
2023-05-21T12:37:09.121Z,16.83
2023-05-21T12:39:45.781Z,17.07
2023-05-21T12:42:13.001Z,15.20
2023-05-21T12:44:47.729Z,15.57
2023-05-21T12:47:14.726Z,16.00
2023-05-21T12:49:42.383Z,15.40
2023-05-21T12:52:12.936Z,16.13
2023-05-21T12:54:40.429Z,16.10
2023-05-21T12:57:13.549Z,16.70
2023-05-21T12:59:47.470Z,18.23
2023-05-21T13:02:19.951Z,15.70
2023-05-21T13:04:47.397Z,15.83
2023-05-21T13:07:15.130Z,14.60
2023-05-21T13:09:42.017Z,16.90
2023-05-21T13:12:09.343Z,15.83
2023-05-21T13:14:36.154Z,17.90
2023-05-21T13:17:03.056Z,16.20
2023-05-21T13:19:30.069Z,17.13
2023-05-21T13:21:57.490Z,17.30
2023-05-21T13:24:24.746Z,16.83
2023-05-21T13:26:51.556Z,16.33
2023-05-21T13:29:18.466Z,15.77
2023-05-21T13:31:45.959Z,15.63
2023-05-21T13:34:12.961Z,15.30
2023-05-21T13:36:40.662Z,13.23
2023-05-21T13:39:07.519Z,15.63
2023-05-21T13:41:34.336Z,15.77
2023-05-21T13:44:01.125Z,16.50
2023-05-21T13:46:28.056Z,15.83
2023-05-21T13:48:54.958Z,16.53
2023-05-21T13:51:37.470Z,14.70
2023-05-21T13:54:05.912Z,15.13
2023-05-21T13:56:34.023Z,15.43
2023-05-21T13:59:01.915Z,16.50
2023-05-21T14:01:28.882Z,15.53
2023-05-21T14:03:55.987Z,15.70
2023-05-21T14:06:22.745Z,14.27
2023-05-21T14:08:49.491Z,17.27
2023-05-21T14:11:16.627Z,14.93
2023-05-21T14:13:43.505Z,16.00
2023-05-21T14:16:10.361Z,15.03
2023-05-21T14:18:37.133Z,14.67
2023-05-21T14:21:04.024Z,17.03
2023-05-21T14:23:30.905Z,14.97
2023-05-21T14:25:57.719Z,17.40
2023-05-21T14:28:24.445Z,16.40
2023-05-21T14:30:51.207Z,14.77
2023-05-21T14:33:18.087Z,18.90
2023-05-21T14:35:45.012Z,18.50
2023-05-21T14:38:12.212Z,16.50
2023-05-21T14:40:39.063Z,17.13
2023-05-21T14:43:06.574Z,17.67
2023-05-21T14:45:35.635Z,18.23
2023-05-21T14:48:03.378Z,14.77
2023-05-21T14:50:30.199Z,18.40
2023-05-21T14:52:56.985Z,15.17
2023-05-21T14:55:23.755Z,16.17
2023-05-21T14:57:50.602Z,18.23
2023-05-21T15:00:17.679Z,17.30
2023-05-21T15:02:44.751Z,16.73
2023-05-21T15:05:12.380Z,17.00
2023-05-21T15:07:39.264Z,13.33
2023-05-21T15:10:06.465Z,18.00
2023-05-21T15:12:33.210Z,17.63
2023-05-21T15:15:00.160Z,18.00
2023-05-21T15:17:27.062Z,17.77
2023-05-21T15:19:53.876Z,18.17
2023-05-21T15:22:21.641Z,17.47
2023-05-21T15:24:48.718Z,19.07
2023-05-21T15:27:15.606Z,18.07
2023-05-21T15:29:42.405Z,17.83
2023-05-21T15:32:09.142Z,17.93
2023-05-21T15:34:36.032Z,21.13
2023-05-21T15:37:02.944Z,17.83
2023-05-21T15:39:30.376Z,19.37
2023-05-21T15:41:57.284Z,15.90
2023-05-21T15:44:24.920Z,14.80
2023-05-21T15:46:53.842Z,14.47
2023-05-21T15:49:20.887Z,16.67
2023-05-21T15:51:48.291Z,15.07
2023-05-21T15:54:15.676Z,14.53
2023-05-21T15:56:43.833Z,15.83
2023-05-21T15:59:10.698Z,14.93
2023-05-21T16:01:37.706Z,14.63
2023-05-21T16:04:04.524Z,16.57
2023-05-21T16:06:31.772Z,16.67
2023-05-21T16:08:58.824Z,15.53
2023-05-21T16:11:26.367Z,14.17
2023-05-21T16:13:53.685Z,16.13
2023-05-21T16:16:23.118Z,14.60
2023-05-21T16:18:51.790Z,16.13
2023-05-21T16:21:18.621Z,12.83
2023-05-21T16:23:45.369Z,15.40
2023-05-21T16:26:12.973Z,16.40
2023-05-21T16:28:39.686Z,16.50
2023-05-21T16:31:06.552Z,13.43
2023-05-21T16:33:33.358Z,15.47
2023-05-21T16:36:00.144Z,14.07
2023-05-21T16:38:26.993Z,14.67
2023-05-21T16:40:54.015Z,15.87
2023-05-21T16:43:24.374Z,14.33
2023-05-21T16:45:52.550Z,13.80
2023-05-21T16:48:19.349Z,16.60
2023-05-21T16:50:47.271Z,15.27
2023-05-21T16:53:14.084Z,15.80
2023-05-21T16:55:42.438Z,14.27
2023-05-21T16:58:10.762Z,16.17
2023-05-21T17:00:37.932Z,17.10
2023-05-21T17:03:04.816Z,16.90
2023-05-21T17:05:31.690Z,14.93
2023-05-21T17:07:58.489Z,16.77
2023-05-21T17:10:25.488Z,13.57
2023-05-21T17:12:52.436Z,14.30
2023-05-21T17:15:19.152Z,14.80
2023-05-21T17:17:46.060Z,14.37
2023-05-21T17:20:13.149Z,15.53
2023-05-21T17:22:39.950Z,14.43
2023-05-21T17:25:07.072Z,16.03
2023-05-21T17:27:34.011Z,14.43
2023-05-21T17:30:00.776Z,13.57
2023-05-21T17:32:27.900Z,16.37
2023-05-21T17:34:54.694Z,14.30
2023-05-21T17:37:21.506Z,14.40
2023-05-21T17:39:48.507Z,14.60
2023-05-21T17:42:15.847Z,15.60
2023-05-21T17:44:42.653Z,16.57
2023-05-21T17:47:09.666Z,13.77
2023-05-21T17:49:36.461Z,15.03
2023-05-21T17:52:04.729Z,13.70
2023-05-21T17:54:31.647Z,13.57
2023-05-21T17:56:58.493Z,18.03
2023-05-21T17:59:25.263Z,13.73
2023-05-21T18:01:52.010Z,16.23
2023-05-21T18:04:18.889Z,15.43
2023-05-21T18:06:45.754Z,16.97
2023-05-21T18:09:14.534Z,15.37
2023-05-21T18:11:42.467Z,14.43
2023-05-21T18:14:09.191Z,17.03
2023-05-21T18:16:36.155Z,14.73
2023-05-21T18:19:05.849Z,15.10
2023-05-21T18:21:33.900Z,16.30
2023-05-21T18:24:00.960Z,15.43
2023-05-21T18:26:30.171Z,15.07
2023-05-21T18:28:58.161Z,14.50
2023-05-21T18:31:25.325Z,15.87
2023-05-21T18:33:52.239Z,15.53
2023-05-21T18:36:21.254Z,15.47
2023-05-21T18:38:48.553Z,17.23
2023-05-21T18:41:15.458Z,17.77
2023-05-21T18:43:42.708Z,20.47
2023-05-21T18:46:09.501Z,15.97
2023-05-21T18:48:36.449Z,17.23
2023-05-21T18:51:03.241Z,17.53
2023-05-21T18:53:30.053Z,15.70
2023-05-21T18:55:56.872Z,15.70
2023-05-21T18:58:23.879Z,16.43
2023-05-21T19:00:51.291Z,15.60
2023-05-21T19:03:18.172Z,16.43
2023-05-21T19:05:45.295Z,19.07
2023-05-21T19:08:12.257Z,14.73
2023-05-21T19:10:39.612Z,16.33
2023-05-21T19:13:06.863Z,16.27
2023-05-21T19:15:34.179Z,17.67
2023-05-21T19:18:01.953Z,16.33
2023-05-21T19:20:28.892Z,17.90
2023-05-21T19:22:55.773Z,17.47
2023-05-21T19:25:22.665Z,15.57
2023-05-21T19:27:49.532Z,16.13
2023-05-21T19:30:16.670Z,15.83
2023-05-21T19:32:43.829Z,15.73
2023-05-21T19:35:11.172Z,16.53
2023-05-21T19:37:37.992Z,17.47
2023-05-21T19:40:06.265Z,17.03
2023-05-21T19:42:33.361Z,18.33
2023-05-21T19:45:00.153Z,17.40
2023-05-21T19:47:27.852Z,18.10
2023-05-21T19:49:56.600Z,16.77
2023-05-21T19:52:23.733Z,18.30
2023-05-21T19:54:50.816Z,17.03
2023-05-21T19:57:17.738Z,17.83
2023-05-21T19:59:44.693Z,17.43
2023-05-21T20:02:12.877Z,17.57
2023-05-21T20:04:39.618Z,17.07
2023-05-21T20:07:06.655Z,18.03
2023-05-21T20:09:33.538Z,17.60
2023-05-21T20:12:00.361Z,16.30
2023-05-21T20:14:27.281Z,16.93
2023-05-21T20:16:54.415Z,17.73
2023-05-21T20:19:22.695Z,17.10
2023-05-21T20:21:49.678Z,16.37
2023-05-21T20:24:16.476Z,16.83
2023-05-21T20:26:45.089Z,17.17
2023-05-21T20:29:11.907Z,18.07
2023-05-21T20:31:38.840Z,15.83
2023-05-21T20:34:07.937Z,19.33
2023-05-21T20:36:38.096Z,17.27
2023-05-21T20:39:05.174Z,17.50
2023-05-21T20:41:44.861Z,17.90
2023-05-21T20:44:12.111Z,17.93
2023-05-21T20:46:39.109Z,17.93
2023-05-21T20:49:06.168Z,17.43
2023-05-21T20:51:33.144Z,17.83
2023-05-21T20:54:00.037Z,16.87
2023-05-21T20:58:58.926Z,21.80
2023-05-21T21:01:30.569Z,18.47
2023-05-21T21:03:58.609Z,18.13
2023-05-21T21:06:26.452Z,17.47
2023-05-21T21:08:55.661Z,19.53
2023-05-21T21:11:23.575Z,18.27
2023-05-21T21:13:51.141Z,18.37
2023-05-21T21:16:20.395Z,18.70
2023-05-21T21:18:47.733Z,18.03
2023-05-21T21:21:14.586Z,18.77
2023-05-21T21:23:41.469Z,17.60
2023-05-21T21:26:08.235Z,16.63
2023-05-21T21:28:35.036Z,17.10
2023-05-21T21:31:01.906Z,17.80
2023-05-21T21:33:31.800Z,18.17
2023-05-21T21:36:00.003Z,18.50
2023-05-21T21:38:26.812Z,16.10
2023-05-21T21:40:54.664Z,17.73
2023-05-21T21:43:21.436Z,16.83
2023-05-21T21:45:48.249Z,18.07
2023-05-21T21:48:16.685Z,19.13
2023-05-21T21:50:43.423Z,18.00
2023-05-21T21:53:10.305Z,17.77
2023-05-21T21:55:40.428Z,19.83
2023-05-21T21:58:08.716Z,16.80
2023-05-21T22:00:35.861Z,19.87
2023-05-21T22:03:02.738Z,18.03
2023-05-21T22:05:31.486Z,16.87
2023-05-21T22:07:58.459Z,20.27
2023-05-21T22:10:25.486Z,17.83
2023-05-21T22:12:52.215Z,17.93
2023-05-21T22:15:20.255Z,16.80
2023-05-21T22:17:48.496Z,17.73
2023-05-21T22:20:17.639Z,20.37
2023-05-21T22:22:47.433Z,19.03
2023-05-21T22:25:14.413Z,18.93
2023-05-21T22:27:42.439Z,19.10
2023-05-21T22:30:09.569Z,20.47
2023-05-21T22:32:36.406Z,18.60
2023-05-21T22:35:04.491Z,20.03
2023-05-21T22:37:31.433Z,18.27
2023-05-21T22:39:58.270Z,19.27
2023-05-21T22:42:25.061Z,18.47
2023-05-21T22:44:52.313Z,19.37
2023-05-21T22:47:23.125Z,20.07
2023-05-21T22:49:52.266Z,19.13
2023-05-21T22:52:21.772Z,20.77
2023-05-21T22:54:48.951Z,19.37
2023-05-21T22:57:16.451Z,21.60
2023-05-21T22:59:43.186Z,21.60
2023-05-21T23:02:10.173Z,20.70
2023-05-21T23:04:43.893Z,21.50
2023-05-21T23:07:11.767Z,19.10
2023-05-21T23:09:38.856Z,19.40
2023-05-21T23:12:05.819Z,21.67
2023-05-21T23:14:32.537Z,23.20
2023-05-21T23:17:02.501Z,21.97
2023-05-21T23:19:29.764Z,19.87
2023-05-21T23:21:57.068Z,22.30
2023-05-21T23:24:23.915Z,20.90
2023-05-21T23:26:50.788Z,20.90
2023-05-21T23:29:17.719Z,20.43
2023-05-21T23:31:44.822Z,21.80
2023-05-21T23:34:12.448Z,21.53
2023-05-21T23:36:39.474Z,21.17
2023-05-21T23:39:06.393Z,20.27
2023-05-21T23:41:33.277Z,22.30
2023-05-21T23:44:00.034Z,23.13
2023-05-21T23:46:26.844Z,22.97
2023-05-21T23:48:53.691Z,22.17
2023-05-21T23:51:20.618Z,22.43
2023-05-21T23:53:47.666Z,22.73
2023-05-21T23:56:14.445Z,22.97
2023-05-21T23:58:41.454Z,22.53
